Time;durP1;ratioP1;P1;durP2;ratioP2;P2;SDS_P1;SDS_P2;PMS_P1;PMS_P2;Temp;Humidity;BMP_temperature;BMP_pressure;BME280_temperature;BME280_humidity;BME280_pressure;Samples;Min_cycle;Max_cycle;Signal;HPM_P1;HPM_P2
2021/04/17 00:01:56;;;;;;;3.67;3.27;;;;;;;8.87;78.52;100360.34;1722722;81;21146;-42
2021/04/17 00:04:25;;;;;;;4.30;3.40;;;;;;;8.86;78.54;100367.42;1739900;80;21189;-42
2021/04/17 00:06:52;;;;;;;3.95;3.40;;;;;;;8.86;78.60;100369.23;1714929;82;21574;-41
2021/04/17 00:09:26;;;;;;;3.77;3.35;;;;;;;8.86;78.59;100367.91;1726805;81;21161;-42
2021/04/17 00:11:59;;;;;;;4.05;3.65;;;;;;;8.85;78.58;100366.20;1728238;80;21149;-42
2021/04/17 00:14:29;;;;;;;3.92;3.47;;;;;;;8.83;78.48;100366.75;1727903;80;21204;-42
2021/04/17 00:16:59;;;;;;;3.90;3.12;;;;;;;8.81;78.56;100363.30;1731994;81;21675;-43
2021/04/17 00:19:27;;;;;;;4.58;3.62;;;;;;;8.77;78.47;100364.39;1716452;81;21171;-43
2021/04/17 00:21:55;;;;;;;4.50;3.70;;;;;;;8.75;78.48;100365.82;1718960;81;21671;-43
2021/04/17 00:24:22;;;;;;;5.30;3.83;;;;;;;8.73;78.40;100367.70;1730586;81;21143;-42
2021/04/17 00:26:51;;;;;;;4.28;3.87;;;;;;;8.73;78.37;100366.84;1722304;81;21225;-42
2021/04/17 00:29:18;;;;;;;4.85;3.98;;;;;;;8.72;78.36;100373.08;1718052;81;21155;-43
2021/04/17 00:31:46;;;;;;;4.22;3.83;;;;;;;8.70;78.39;100367.86;1726202;82;21188;-41
2021/04/17 00:34:14;;;;;;;5.60;4.15;;;;;;;8.70;78.47;100371.00;1717539;81;21157;-46
2021/04/17 00:36:41;;;;;;;4.67;3.80;;;;;;;8.68;78.46;100374.20;1693932;83;21183;-42
2021/04/17 00:39:09;;;;;;;4.85;4.00;;;;;;;8.65;78.52;100368.09;1733514;81;21130;-43
2021/04/17 00:41:37;;;;;;;4.60;4.15;;;;;;;8.66;78.66;100371.13;1732918;80;21165;-47
2021/04/17 00:44:05;;;;;;;4.30;3.80;;;;;;;8.65;78.75;100373.42;1727761;81;21146;-40
2021/04/17 00:46:32;;;;;;;4.78;3.85;;;;;;;8.63;78.77;100377.95;1726220;81;21161;-43
2021/04/17 00:49:04;;;;;;;5.08;4.17;;;;;;;8.62;78.79;100382.03;1720630;80;21178;-45
2021/04/17 00:51:33;;;;;;;5.10;4.50;;;;;;;8.62;78.91;100382.03;1728373;80;21162;-45
2021/04/17 00:54:01;;;;;;;4.28;3.83;;;;;;;8.61;79.00;100384.28;1731130;81;21138;-45
2021/04/17 00:56:29;;;;;;;4.28;3.55;;;;;;;8.60;79.06;100382.10;1681849;83;21186;-42
2021/04/17 00:58:56;;;;;;;5.20;4.15;;;;;;;8.61;79.10;100384.28;1667303;84;21161;-45
2021/04/17 01:01:24;;;;;;;4.28;3.87;;;;;;;8.62;79.05;100386.02;1726556;81;21165;-45
2021/04/17 01:04:14;;;;;;;4.37;3.95;;;;;;;8.62;79.03;100386.02;1698397;82;21174;-42
2021/04/17 01:07:16;;;;;;;5.30;4.80;;;;;;;8.61;79.00;100387.80;1706962;82;22069;-44
2021/04/17 01:10:10;;;;;;;4.62;4.15;;;;;;;8.62;79.00;100391.34;1731156;80;21173;-45
2021/04/17 01:12:45;;;;;;;6.03;4.10;;;;;;;8.61;79.07;100394.44;1722562;80;21161;-46
2021/04/17 01:15:14;;;;;;;4.35;3.62;;;;;;;8.61;79.05;100388.27;1740044;81;21174;-45
2021/04/17 01:17:45;;;;;;;4.35;3.70;;;;;;;8.61;79.04;100390.92;1714877;81;21198;-44
2021/04/17 01:20:33;;;;;;;4.72;3.95;;;;;;;8.58;79.03;100390.62;1730053;81;21186;-46
2021/04/17 01:23:36;;;;;;;4.75;4.12;;;;;;;8.56;78.94;100393.81;1679138;83;21172;-46
2021/04/17 01:26:14;;;;;;;4.58;4.05;;;;;;;8.54;78.98;100387.75;1667723;83;21206;-42
2021/04/17 01:28:50;;;;;;;5.45;3.95;;;;;;;8.54;79.04;100389.52;1663923;84;21185;-42
2021/04/17 01:31:20;;;;;;;4.12;3.72;;;;;;;8.53;79.07;100395.31;1634383;85;21211;-43
2021/04/17 01:33:52;;;;;;;4.72;3.98;;;;;;;8.54;79.00;100394.39;1665288;83;21186;-46
2021/04/17 01:36:20;;;;;;;;;;;;;;;8.54;78.95;100393.06;1673084;83;21279;-45
2021/04/17 01:38:54;;;;;;;3.42;3.08;;;;;;;8.53;78.90;100397.11;1659859;84;20592;-42
2021/04/17 01:41:28;;;;;;;4.83;4.08;;;;;;;8.53;78.92;100401.10;1669599;83;21202;-45
2021/04/17 01:43:59;;;;;;;6.00;4.17;;;;;;;8.50;78.99;100400.80;1664061;83;21596;-42
2021/04/17 01:46:28;;;;;;;;;;;;;;;8.50;79.08;100400.80;1672917;83;21185;-41
2021/04/17 01:48:59;;;;;;;4.15;3.50;;;;;;;8.51;79.18;100402.97;1684873;83;20298;-42
2021/04/17 01:51:29;;;;;;;4.90;3.20;;;;;;;8.52;79.29;100400.73;1640607;85;21734;-40
2021/04/17 01:53:58;;;;;;;4.20;3.50;;;;;;;8.51;79.34;100399.84;1684828;83;21322;-44
2021/04/17 01:56:26;;;;;;;4.55;3.60;;;;;;;8.51;79.42;100398.98;1672857;83;21625;-44
2021/04/17 01:58:54;;;;;;;5.17;4.22;;;;;;;8.51;79.45;100395.85;1702469;81;22131;-46
2021/04/17 02:01:22;;;;;;;4.33;3.90;;;;;;;8.51;79.44;100400.31;1738387;81;21124;-40
2021/04/17 02:03:50;;;;;;;3.77;3.37;;;;;;;8.51;79.36;100408.28;1723233;81;21253;-44
2021/04/17 02:06:18;;;;;;;4.40;3.70;;;;;;;8.50;79.32;100409.23;1712833;81;21620;-44
2021/04/17 02:08:46;;;;;;;4.28;3.65;;;;;;;8.48;79.32;100411.11;1720790;81;21288;-41
2021/04/17 02:11:14;;;;;;;5.22;4.50;;;;;;;8.47;79.36;100409.38;1732182;81;21130;-42
2021/04/17 02:13:42;;;;;;;5.42;4.28;;;;;;;8.48;79.50;100409.78;1737451;81;21175;-43
2021/04/17 02:16:13;;;;;;;4.33;3.40;;;;;;;8.49;79.55;100412.81;1711816;81;21636;-43
2021/04/17 02:18:59;;;;;;;4.22;3.77;;;;;;;8.49;79.64;100409.68;1729806;81;21163;-44
2021/04/17 02:21:38;;;;;;;3.90;3.50;;;;;;;8.51;79.60;100410.47;1725497;81;21574;-42
2021/04/17 02:24:08;;;;;;;;;;;;;;;8.50;79.58;100418.06;1733623;80;21142;-43
2021/04/17 02:26:38;;;;;;;4.00;3.55;;;;;;;8.51;79.54;100417.59;1732080;81;20206;-41
2021/04/17 02:29:07;;;;;;;4.78;4.12;;;;;;;8.51;79.49;100420.25;1739838;80;21181;-44
2021/04/17 02:31:34;;;;;;;5.08;4.58;;;;;;;8.50;79.44;100422.53;1730986;81;21557;-43
2021/04/17 02:34:03;;;;;;;4.45;4.05;;;;;;;8.51;79.40;100422.91;1740502;80;21182;-44
2021/04/17 02:36:31;;;;;;;4.20;3.55;;;;;;;8.50;79.31;100423.86;1707113;82;21168;-45
2021/04/17 02:38:59;;;;;;;4.85;4.33;;;;;;;8.49;79.28;100422.97;1719615;80;21194;-47
2021/04/17 02:41:27;;;;;;;4.15;3.70;;;;;;;8.48;79.22;100425.25;1723987;81;21171;-44
2021/04/17 02:43:55;;;;;;;4.95;3.98;;;;;;;8.47;79.19;100429.30;1738092;81;21157;-42
2021/04/17 02:46:23;;;;;;;4.83;4.00;;;;;;;8.44;79.14;100433.86;1717087;81;21177;-42
2021/04/17 02:48:52;;;;;;;5.42;4.62;;;;;;;8.41;79.08;100435.80;1730315;80;21185;-42
2021/04/17 02:51:20;;;;;;;5.12;4.35;;;;;;;8.40;79.12;100442.06;1722534;81;21177;-40
2021/04/17 02:53:49;;;;;;;4.20;3.70;;;;;;;8.38;79.22;100443.42;1722330;81;21164;-42
2021/04/17 02:56:16;;;;;;;5.45;4.10;;;;;;;8.39;79.23;100449.59;1726642;81;21155;-39
2021/04/17 02:58:44;;;;;;;4.90;4.00;;;;;;;8.38;79.29;100448.73;1735937;81;21149;-42
2021/04/17 03:01:12;;;;;;;5.20;4.70;;;;;;;8.40;79.47;100448.70;1730016;81;21201;-42
2021/04/17 03:03:41;;;;;;;4.95;4.30;;;;;;;8.41;79.48;100451.27;1733527;80;21156;-40
2021/04/17 03:06:09;;;;;;;5.78;4.60;;;;;;;8.43;79.42;100456.04;1725426;81;21209;-42
2021/04/17 03:08:36;;;;;;;4.40;3.83;;;;;;;8.42;79.35;100450.82;1727173;81;21154;-40
2021/04/17 03:11:04;;;;;;;6.35;5.17;;;;;;;8.41;79.36;100458.38;1724769;80;21189;-44
2021/04/17 03:13:32;;;;;;;5.45;4.92;;;;;;;8.41;79.33;100458.38;1715080;81;21146;-44
2021/04/17 03:16:00;;;;;;;5.28;4.78;;;;;;;8.41;79.36;100462.36;1733000;82;21157;-45
2021/04/17 03:18:28;;;;;;;4.78;4.25;;;;;;;8.40;79.38;100461.52;1727132;80;21180;-45
2021/04/17 03:20:56;;;;;;;5.67;5.03;;;;;;;8.41;79.45;100463.22;1707776;81;21480;-43
2021/04/17 03:23:24;;;;;;;5.97;5.08;;;;;;;8.42;79.44;100467.62;1729383;80;21113;-43
2021/04/17 03:25:51;;;;;;;6.42;5.15;;;;;;;8.44;79.42;100471.06;1729205;81;21137;-42
2021/04/17 03:28:19;;;;;;;5.42;4.87;;;;;;;8.43;79.39;100473.31;1736063;80;21177;-41
2021/04/17 03:30:46;;;;;;;5.20;4.70;;;;;;;8.42;79.42;100477.39;1672467;83;21689;-43
2021/04/17 03:33:14;;;;;;;5.87;4.62;;;;;;;8.41;79.51;100473.85;1723936;81;21211;-44
2021/04/17 03:35:42;;;;;;;6.72;5.30;;;;;;;8.40;79.52;100476.12;1735493;81;21351;-44
2021/04/17 03:38:10;;;;;;;6.45;5.08;;;;;;;8.42;79.55;100478.72;1716133;81;21146;-45
2021/04/17 03:40:38;;;;;;;7.72;5.65;;;;;;;8.40;79.62;100481.44;1735654;81;22056;-43
2021/04/17 03:43:06;;;;;;;4.58;4.12;;;;;;;8.40;79.63;100485.91;1730321;82;21299;-45
2021/04/17 03:45:35;;;;;;;7.05;5.30;;;;;;;8.40;79.70;100493.40;1723034;80;21300;-43
2021/04/17 03:48:04;;;;;;;5.60;5.03;;;;;;;8.41;79.78;100493.78;1735044;81;21191;-44
2021/04/17 03:50:32;;;;;;;5.92;4.95;;;;;;;8.42;79.92;100494.20;1724077;81;21975;-40
2021/04/17 03:53:01;;;;;;;6.30;5.53;;;;;;;8.43;80.03;100495.90;1721672;81;21146;-43
2021/04/17 03:55:31;;;;;;;7.05;5.25;;;;;;;8.44;80.15;100495.42;1734820;81;21149;-45
2021/04/17 03:57:59;;;;;;;7.50;4.95;;;;;;;8.45;80.24;100500.67;1738544;80;21180;-44
2021/04/17 04:00:29;;;;;;;5.70;5.08;;;;;;;8.45;80.32;100499.35;1726409;81;21149;-45
2021/04/17 04:03:05;;;;;;;7.22;4.97;;;;;;;8.48;80.34;100505.45;1720234;81;21145;-46
2021/04/17 04:05:33;;;;;;;5.47;4.95;;;;;;;8.49;80.33;100508.49;1673156;84;21169;-45
2021/04/17 04:08:01;;;;;;;6.15;5.45;;;;;;;8.52;80.35;100513.69;1727412;80;21185;-41
2021/04/17 04:10:30;;;;;;;6.50;5.55;;;;;;;8.51;80.33;100514.59;1725515;80;21182;-41
2021/04/17 04:12:57;;;;;;;6.85;5.47;;;;;;;8.50;80.32;100520.86;1711815;81;21154;-41
2021/04/17 04:15:25;;;;;;;8.53;6.80;;;;;;;8.49;80.29;100523.11;1735115;81;21161;-42
2021/04/17 04:17:53;;;;;;;8.03;7.22;;;;;;;8.49;80.26;100525.77;1715852;81;21253;-40
2021/04/17 04:20:20;;;;;;;8.03;7.22;;;;;;;8.51;80.36;100529.22;1716815;82;21216;-40
2021/04/17 04:22:48;;;;;;;8.03;6.90;;;;;;;8.53;80.31;100531.34;1707254;82;21223;-41
2021/04/17 04:25:16;;;;;;;7.47;6.67;;;;;;;8.54;80.30;100529.06;1717914;81;21184;-44
2021/04/17 04:27:43;;;;;;;7.83;6.95;;;;;;;8.53;80.37;100532.67;1732348;81;21171;-40
2021/04/17 04:30:12;;;;;;;6.85;6.15;;;;;;;8.53;80.50;100541.97;1729263;80;21192;-39
2021/04/17 04:32:40;;;;;;;7.62;6.03;;;;;;;8.54;80.57;100536.59;1732077;81;21150;-41
2021/04/17 04:35:09;;;;;;;7.67;6.33;;;;;;;8.56;80.52;100537.83;1714174;81;21113;-44
2021/04/17 04:37:37;;;;;;;7.53;6.72;;;;;;;8.57;80.48;100536.91;1733668;81;21224;-44
2021/04/17 04:40:06;;;;;;;6.20;5.60;;;;;;;8.57;80.40;100537.77;1730214;81;21195;-45
2021/04/17 04:42:34;;;;;;;7.95;5.62;;;;;;;8.56;80.43;100538.68;1729934;81;21173;-43
2021/04/17 04:45:04;;;;;;;6.78;5.62;;;;;;;8.57;80.46;100540.42;1736218;81;21615;-43
2021/04/17 04:47:33;;;;;;;6.85;6.12;;;;;;;8.57;80.44;100544.88;1735244;81;21149;-41
2021/04/17 04:50:04;;;;;;;7.28;5.65;;;;;;;8.55;80.42;100545.42;1676899;84;21150;-44
2021/04/17 04:52:31;;;;;;;6.83;6.12;;;;;;;8.54;80.44;100547.23;1729090;81;21605;-44
2021/04/17 04:54:59;;;;;;;6.55;5.92;;;;;;;8.53;80.43;100552.60;1730851;80;21169;-43
2021/04/17 04:57:27;;;;;;;6.83;5.67;;;;;;;8.51;80.42;100554.47;1739096;81;21173;-43
2021/04/17 04:59:54;;;;;;;7.85;5.75;;;;;;;8.50;80.46;100560.26;1726852;81;21169;-39
2021/04/17 05:02:22;;;;;;;5.33;4.70;;;;;;;8.50;80.47;100558.08;1733017;81;21176;-42
2021/04/17 05:04:49;;;;;;;6.10;5.50;;;;;;;8.50;80.52;100564.24;1730885;81;21133;-40
2021/04/17 05:07:17;;;;;;;8.83;6.92;;;;;;;8.52;80.58;100570.36;1726676;81;21459;-41
2021/04/17 05:09:45;;;;;;;8.43;7.62;;;;;;;8.54;80.65;100573.80;1730919;81;21722;-38
2021/04/17 05:12:13;;;;;;;9.08;8.18;;;;;;;8.56;80.75;100575.04;1723841;80;21633;-38
2021/04/17 05:14:43;;;;;;;8.67;7.67;;;;;;;8.57;80.73;100573.65;1720887;81;21161;-40
2021/04/17 05:17:10;;;;;;;7.70;6.47;;;;;;;8.59;80.76;100577.09;1721952;81;21213;-40
2021/04/17 05:19:40;;;;;;;6.97;6.15;;;;;;;8.60;80.71;100573.49;1717163;81;21589;-40
2021/04/17 05:22:08;;;;;;;6.45;5.72;;;;;;;8.63;80.67;100574.66;1729347;81;21702;-42
2021/04/17 05:24:37;;;;;;;6.65;5.95;;;;;;;8.65;80.70;100574.59;1716222;81;21601;-42
2021/04/17 05:27:06;;;;;;;5.50;4.25;;;;;;;8.67;80.58;100580.71;1724887;81;21110;-41
2021/04/17 05:29:34;;;;;;;5.78;5.17;;;;;;;8.65;80.47;100581.25;1709376;81;21138;-44
2021/04/17 05:32:02;;;;;;;6.17;4.72;;;;;;;8.64;80.36;100587.48;1726007;81;21182;-40
2021/04/17 05:34:31;;;;;;;5.53;5.00;;;;;;;8.61;80.25;100588.49;1729550;81;21153;-43
2021/04/17 05:36:58;;;;;;;6.08;5.00;;;;;;;8.61;80.14;100589.82;1736649;81;21613;-41
2021/04/17 05:39:27;;;;;;;5.53;5.03;;;;;;;8.57;79.92;100594.91;1731885;81;21150;-43
2021/04/17 05:41:54;;;;;;;5.55;4.92;;;;;;;8.54;79.90;100595.06;1719320;82;21165;-40
2021/04/17 05:44:22;;;;;;;4.92;4.42;;;;;;;8.53;79.85;100604.44;1725075;81;21182;-41
2021/04/17 05:46:50;;;;;;;5.05;4.37;;;;;;;8.50;79.75;100601.45;1727236;81;21166;-41
2021/04/17 05:49:17;;;;;;;5.45;4.87;;;;;;;8.49;79.84;100604.17;1692453;83;21186;-39
2021/04/17 05:51:45;;;;;;;4.70;4.20;;;;;;;8.48;79.94;100610.44;1675561;84;21217;-43
2021/04/17 05:54:14;;;;;;;4.90;4.40;;;;;;;8.47;79.98;100606.03;1739408;81;21152;-44
2021/04/17 05:56:42;;;;;;;4.92;4.10;;;;;;;8.45;80.10;100614.95;1729686;81;21114;-43
2021/04/17 05:59:10;;;;;;;4.80;4.03;;;;;;;8.48;80.21;100615.75;1727402;81;21952;-38
2021/04/17 06:01:39;;;;;;;4.85;4.35;;;;;;;8.48;80.12;100614.42;1731892;81;21142;-44
2021/04/17 06:04:08;;;;;;;7.10;5.08;;;;;;;8.48;80.11;100614.42;1715480;80;21502;-43
2021/04/17 06:06:36;;;;;;;5.40;4.47;;;;;;;8.50;80.27;100619.20;1732730;81;21176;-44
2021/04/17 06:09:04;;;;;;;5.78;5.17;;;;;;;8.51;80.28;100623.57;1728734;81;21184;-41
2021/04/17 06:11:33;;;;;;;6.42;4.30;;;;;;;8.51;80.29;100623.57;1738505;81;21174;-45
2021/04/17 06:14:01;;;;;;;11.95;5.22;;;;;;;8.51;80.31;100627.56;1708634;81;21142;-34
2021/04/17 06:16:28;;;;;;;7.20;4.20;;;;;;;8.52;80.44;100628.83;1726170;81;21565;-34
2021/04/17 06:18:58;;;;;;;6.05;3.85;;;;;;;8.74;81.86;100633.09;1727859;81;21154;-36
2021/04/17 06:21:26;;;;;;;5.30;4.67;;;;;;;9.19;83.42;100633.95;1730508;81;21708;-36
2021/04/17 06:23:54;;;;;;;5.55;4.40;;;;;;;9.60;83.62;100627.45;1733920;81;21142;-35
2021/04/17 06:26:22;;;;;;;4.58;3.25;;;;;;;9.96;82.37;100622.00;1723527;81;22037;-36
2021/04/17 06:28:51;;;;;;;4.08;3.62;;;;;;;10.28;80.79;100626.06;1725400;81;21979;-34
2021/04/17 06:31:18;;;;;;;7.08;3.67;;;;;;;10.54;79.49;100630.83;1718321;81;21150;-34
2021/04/17 06:33:46;;;;;;;3.90;3.17;;;;;;;10.77;78.24;100627.34;1728366;81;21149;-35
2021/04/17 06:36:17;;;;;;;5.62;3.37;;;;;;;10.92;76.78;100633.61;1723884;82;21675;-37
2021/04/17 06:38:45;;;;;;;3.60;3.30;;;;;;;11.01;75.99;100631.72;1727742;81;21307;-37
2021/04/17 06:41:13;;;;;;;3.45;3.00;;;;;;;11.03;74.93;100633.84;1728754;81;21168;-35
2021/04/17 06:43:42;;;;;;;3.27;2.98;;;;;;;11.07;74.06;100635.88;1726414;81;21210;-35
2021/04/17 06:46:13;;;;;;;4.75;4.25;;;;;;;11.19;73.45;100638.68;1708695;81;21153;-36
2021/04/17 06:48:41;;;;;;;;;;;;;;;11.29;73.25;100632.78;1717632;81;21169;-38
2021/04/17 06:51:32;;;;;;;9.15;8.18;;;;;;;11.37;72.65;100636.73;1727552;81;20264;-39
2021/04/17 06:54:04;;;;;;;5.25;4.75;;;;;;;11.42;72.22;100633.80;1734819;81;21363;-36
2021/04/17 06:56:32;;;;;;;6.28;4.47;;;;;;;11.46;71.85;100632.20;1719950;82;21190;-36
2021/04/17 06:58:59;;;;;;;4.72;3.77;;;;;;;11.45;71.54;100633.61;1733848;80;21166;-37
2021/04/17 07:01:30;;;;;;;4.28;3.87;;;;;;;11.46;71.39;100634.86;1726310;81;21126;-37
2021/04/17 07:03:58;;;;;;;4.17;3.65;;;;;;;11.43;70.80;100639.51;1734819;80;21186;-38
2021/04/17 07:06:27;;;;;;;3.95;3.40;;;;;;;11.36;70.65;100641.67;1720123;81;21561;-38
2021/04/17 07:08:55;;;;;;;4.05;3.45;;;;;;;11.33;70.95;100643.19;1730671;81;21193;-37
2021/04/17 07:11:23;;;;;;;4.40;3.65;;;;;;;11.34;71.14;100644.05;1735195;80;21162;-40
2021/04/17 07:14:15;;;;;;;4.45;3.60;;;;;;;11.34;71.21;100652.94;1727502;81;21165;-38
2021/04/17 07:17:03;;;;;;;5.22;3.33;;;;;;;11.37;71.26;100651.90;1718748;81;21133;-37
2021/04/17 07:19:56;;;;;;;4.62;3.55;;;;;;;11.31;70.90;100652.24;1717525;81;21141;-38
2021/04/17 07:22:39;;;;;;;3.15;2.83;;;;;;;11.12;70.55;100657.33;1735987;80;21124;-36
2021/04/17 07:25:13;;;;;;;7.25;5.85;;;;;;;11.03;71.12;100656.03;1722256;81;21186;-38
2021/04/17 07:27:51;;;;;;;4.87;3.80;;;;;;;11.06;71.27;100657.67;1721134;81;21312;-39
2021/04/17 07:30:26;;;;;;;4.33;3.30;;;;;;;11.10;71.40;100663.22;1728155;81;21947;-38
2021/04/17 07:33:10;;;;;;;4.67;3.10;;;;;;;11.10;71.27;100663.70;1718574;81;21672;-36
2021/04/17 07:35:44;;;;;;;5.08;3.35;;;;;;;11.12;71.28;100661.33;1705178;82;21169;-35
2021/04/17 07:38:29;;;;;;;4.85;2.60;;;;;;;11.18;71.26;100665.45;1716090;81;21221;-36
2021/04/17 07:41:15;;;;;;;5.28;2.60;;;;;;;11.17;71.00;100669.08;1712957;80;21157;-36
2021/04/17 07:46:42;;;;;;;3.58;2.77;;;;;;;11.03;69.74;100676.53;1803089;78;23066;-36
2021/04/17 07:49:16;;;;;;;4.20;3.17;;;;;;;10.97;70.32;100678.23;1772577;79;21479;-36
2021/04/17 07:52:10;;;;;;;3.37;2.52;;;;;;;10.93;70.59;100683.34;1773254;79;21163;-37
2021/04/17 07:54:57;;;;;;;3.45;2.83;;;;;;;10.90;71.07;100680.38;1772264;79;21120;-39
2021/04/17 07:57:45;;;;;;;2.90;2.30;;;;;;;10.96;71.08;100683.16;1777023;79;21162;-37
2021/04/17 08:00:16;;;;;;;5.30;3.05;;;;;;;10.99;70.73;100681.67;1779636;79;21173;-35
2021/04/17 08:02:51;;;;;;;3.83;2.35;;;;;;;10.96;70.21;100688.05;1775118;79;21129;-37
2021/04/17 08:05:20;;;;;;;2.90;2.52;;;;;;;10.94;70.12;100687.27;1740170;81;21634;-36
2021/04/17 08:07:49;;;;;;;2.10;1.90;;;;;;;10.96;69.92;100684.05;1718170;81;21158;-39
2021/04/17 08:10:17;;;;;;;2.40;1.80;;;;;;;10.99;69.63;100691.87;1717633;81;21150;-35
2021/04/17 08:12:45;;;;;;;4.58;3.42;;;;;;;11.00;69.51;100688.23;1725145;81;21460;-37
2021/04/17 08:15:16;;;;;;;3.55;2.47;;;;;;;11.04;69.62;100691.61;1712325;82;21202;-35
2021/04/17 08:17:58;;;;;;;3.27;2.45;;;;;;;11.07;69.78;100689.24;1717565;82;21170;-37
2021/04/17 08:21:22;;;;;;;4.20;3.22;;;;;;;11.04;70.12;100689.80;1600534;88;21243;-35
2021/04/17 08:23:52;;;;;;;3.45;2.45;;;;;;;11.07;70.71;100691.91;1623960;86;21582;-38
2021/04/17 08:26:20;;;;;;;4.00;2.58;;;;;;;11.04;70.54;100691.61;1597904;88;21771;-39
2021/04/17 08:28:50;;;;;;;3.60;2.58;;;;;;;10.94;70.38;100693.94;1592262;88;21238;-38
2021/04/17 08:31:31;;;;;;;3.25;2.90;;;;;;;10.82;69.95;100697.30;1620671;86;21162;-38
2021/04/17 08:34:11;;;;;;;2.72;2.15;;;;;;;10.64;70.02;100692.99;1593690;88;21340;-34
2021/04/17 08:36:53;;;;;;;3.25;2.47;;;;;;;10.58;70.48;100696.39;1597577;88;21162;-35
2021/04/17 08:40:11;;;;;;;4.00;2.90;;;;;;;10.61;71.22;100702.88;1600476;88;21161;-35
2021/04/17 08:43:52;;;;;;;2.98;2.67;;;;;;;10.67;71.61;100699.00;1802443;78;23071;-36
2021/04/17 08:46:21;;;;;;;4.35;3.05;;;;;;;10.60;71.51;100704.28;1767047;80;21495;-38
2021/04/17 08:48:58;;;;;;;4.30;3.47;;;;;;;10.59;71.90;100702.09;1759563;79;21166;-45
2021/04/17 08:51:29;;;;;;;3.77;3.25;;;;;;;10.63;71.94;100700.59;1770144;80;21168;-39
2021/04/17 08:54:11;;;;;;;3.70;2.90;;;;;;;10.66;71.84;100696.41;1768152;79;21162;-41
2021/04/17 08:56:53;;;;;;;3.42;2.95;;;;;;;10.68;71.76;100702.05;1713871;81;21156;-42
2021/04/17 08:59:35;;;;;;;3.80;2.83;;;;;;;10.71;71.66;100708.57;1721629;81;21180;-40
2021/04/17 09:02:14;;;;;;;3.55;3.10;;;;;;;10.75;71.68;100704.77;1705606;82;21173;-42
2021/04/17 09:05:08;;;;;;;3.35;2.95;;;;;;;10.76;71.58;100702.95;1705485;81;21174;-40
2021/04/17 09:07:38;;;;;;;3.33;3.02;;;;;;;10.75;71.34;100703.44;1724981;81;21141;-40
2021/04/17 09:10:27;;;;;;;5.67;3.20;;;;;;;10.76;71.48;100704.28;1724496;81;21169;-43
2021/04/17 09:13:18;;;;;;;4.08;3.00;;;;;;;10.73;71.61;100707.98;1708045;83;21141;-44
2021/04/17 09:15:56;;;;;;;;;;;;;;;10.69;71.84;100703.79;1703720;82;21161;-45
2021/04/17 09:18:38;;;;;;;4.22;2.65;;;;;;;10.60;72.29;100706.47;1704896;82;20286;-42
2021/04/17 09:21:24;;;;;;;4.42;3.30;;;;;;;10.46;71.76;100708.17;1698102;83;21176;-42
2021/04/17 09:23:53;;;;;;;3.22;2.90;;;;;;;10.32;72.07;100707.13;1683979;84;21634;-40
2021/04/17 09:26:34;;;;;;;3.42;3.12;;;;;;;10.25;72.32;100708.83;1702485;82;21243;-41
2021/04/17 09:29:08;;;;;;;4.53;2.80;;;;;;;10.20;72.33;100713.07;1694816;83;21172;-41
2021/04/17 09:31:37;;;;;;;3.50;2.58;;;;;;;10.17;72.35;100715.42;1691191;83;21596;-41
2021/04/17 09:34:11;;;;;;;3.30;2.83;;;;;;;10.14;72.55;100713.41;1678104;84;21210;-43
2021/04/17 09:36:39;;;;;;;4.45;3.98;;;;;;;10.11;72.79;100713.58;1695532;83;21189;-45
2021/04/17 09:39:31;;;;;;;5.97;4.70;;;;;;;10.08;73.07;100715.05;1675289;84;21182;-46
2021/04/17 09:42:04;;;;;;;6.75;6.15;;;;;;;10.06;73.21;100712.96;1697916;82;21188;-41
2021/04/17 09:44:43;;;;;;;6.72;5.40;;;;;;;10.04;73.54;100714.36;1693313;82;21885;-42
2021/04/17 09:47:14;;;;;;;7.15;5.60;;;;;;;10.02;73.78;100714.91;1677754;84;21161;-40
2021/04/17 09:49:45;;;;;;;4.78;4.15;;;;;;;9.99;74.07;100719.55;1698579;83;21173;-43
2021/04/17 09:52:18;;;;;;;6.40;5.10;;;;;;;9.97;74.40;100724.94;1686419;83;21134;-42
2021/04/17 09:54:45;;;;;;;6.95;5.85;;;;;;;9.95;74.50;100719.72;1690896;83;21955;-45
2021/04/17 09:57:12;;;;;;;6.67;5.97;;;;;;;9.94;74.60;100722.44;1690237;84;21197;-41
2021/04/17 09:59:52;;;;;;;6.65;5.53;;;;;;;9.94;74.65;100725.96;1694524;83;21192;-43
2021/04/17 10:02:20;;;;;;;8.10;5.37;;;;;;;9.95;74.79;100728.16;1681180;83;21201;-41
2021/04/17 10:04:58;;;;;;;7.72;6.40;;;;;;;9.95;74.90;100728.16;1705803;82;21120;-39
2021/04/17 10:07:23;;;;;;;5.78;5.28;;;;;;;9.98;74.83;100732.02;1704769;81;21182;-41
2021/04/17 10:10:04;;;;;;;6.50;5.65;;;;;;;9.99;74.62;100737.72;1677292;84;21453;-44
2021/04/17 10:12:32;;;;;;;8.03;7.10;;;;;;;9.99;74.59;100732.39;1700127;82;21180;-41
2021/04/17 10:15:18;;;;;;;14.53;11.35;;;;;;;10.00;74.54;100738.58;1681263;83;21329;-43
2021/04/17 10:17:48;;;;;;;7.95;6.42;;;;;;;10.01;74.46;100741.65;1682291;83;21697;-44
2021/04/17 10:20:18;;;;;;;6.87;5.15;;;;;;;10.01;74.40;100742.98;1700078;81;21576;-43
2021/04/17 10:22:58;;;;;;;6.28;5.22;;;;;;;10.00;74.38;100747.42;1693802;84;21199;-42
2021/04/17 10:25:42;;;;;;;7.03;6.33;;;;;;;10.02;74.46;100748.20;1698089;83;21184;-41
2021/04/17 10:28:22;;;;;;;6.62;5.92;;;;;;;10.02;74.65;100742.02;1694121;84;21165;-44
2021/04/17 10:30:56;;;;;;;7.12;6.28;;;;;;;10.02;74.76;100749.55;1695516;83;21173;-43
2021/04/17 10:33:29;;;;;;;6.78;6.08;;;;;;;10.02;74.89;100750.02;1695750;83;21202;-42
2021/04/17 10:35:58;;;;;;;7.75;6.95;;;;;;;10.03;74.87;100751.73;1697790;83;21183;-43
2021/04/17 10:38:35;;;;;;;6.40;5.80;;;;;;;10.05;74.55;100760.03;1685637;83;21181;-42
2021/04/17 10:41:05;;;;;;;6.65;5.92;;;;;;;10.05;74.55;100752.04;1689643;84;21172;-43
2021/04/17 10:43:34;;;;;;;7.80;6.75;;;;;;;10.06;74.58;100762.25;1680709;83;21248;-42
2021/04/17 10:46:04;;;;;;;7.72;6.92;;;;;;;10.08;74.57;100759.02;1698656;82;21208;-42
2021/04/17 10:48:46;;;;;;;8.30;7.50;;;;;;;10.11;74.50;100762.87;1679748;84;21577;-39
2021/04/17 10:51:16;;;;;;;10.40;7.67;;;;;;;10.12;74.47;100764.59;1698402;83;21186;-39
2021/04/17 10:53:49;;;;;;;8.63;7.72;;;;;;;10.15;74.36;100765.30;1696303;82;21340;-41
2021/04/17 10:56:21;;;;;;;9.30;8.33;;;;;;;10.18;74.30;100767.80;1674483;84;21760;-41
2021/04/17 10:59:01;;;;;;;8.35;7.50;;;;;;;10.21;74.26;100768.11;1687662;84;21190;-42
2021/04/17 11:01:36;;;;;;;9.30;8.18;;;;;;;10.21;74.27;100768.59;1683140;83;21181;-43
2021/04/17 11:04:02;;;;;;;11.00;9.88;;;;;;;10.22;74.50;100771.63;1687362;83;21155;-41
2021/04/17 11:06:35;;;;;;;11.60;10.38;;;;;;;10.21;74.48;100769.92;1685375;84;21126;-39
2021/04/17 11:09:12;;;;;;;9.95;8.93;;;;;;;10.22;74.53;100773.82;1686355;84;21202;-42
2021/04/17 11:12:00;;;;;;;9.35;7.65;;;;;;;10.23;74.46;100776.01;1687850;83;21729;-41
2021/04/17 11:14:28;;;;;;;8.20;7.17;;;;;;;10.24;74.33;100778.61;1688796;83;21186;-41
2021/04/17 11:16:56;;;;;;;9.10;7.17;;;;;;;10.26;74.16;100780.73;1683163;84;21154;-41
2021/04/17 11:19:36;;;;;;;13.15;7.45;;;;;;;10.26;74.06;100778.54;1657678;83;21351;-40
2021/04/17 11:22:20;;;;;;;8.95;7.72;;;;;;;10.26;73.94;100785.20;1701218;83;21621;-40
2021/04/17 11:25:04;;;;;;;8.20;6.83;;;;;;;10.26;73.63;100782.54;1703692;83;21117;-41
2021/04/17 11:27:31;;;;;;;7.40;6.22;;;;;;;10.26;73.44;100788.72;1683634;84;21193;-40
2021/04/17 11:30:01;;;;;;;7.30;6.40;;;;;;;10.31;73.14;100789.85;1685474;83;21607;-43
2021/04/17 11:32:29;;;;;;;7.25;6.53;;;;;;;10.34;72.58;100785.20;1670835;83;21189;-42
2021/04/17 11:34:58;;;;;;;9.13;6.53;;;;;;;10.36;72.35;100782.00;1684207;83;21153;-39
2021/04/17 11:37:30;;;;;;;7.92;7.12;;;;;;;10.38;72.29;100783.23;1673457;83;21153;-42
2021/04/17 11:39:55;;;;;;;7.90;6.25;;;;;;;10.37;72.56;100780.19;1685344;83;21178;-41
2021/04/17 11:42:24;;;;;;;7.22;6.53;;;;;;;10.38;72.61;100784.56;1697451;83;21169;-40
2021/04/17 11:44:53;;;;;;;7.30;6.15;;;;;;;10.39;72.55;100788.97;1681794;84;21126;-45
2021/04/17 11:47:21;;;;;;;7.78;6.67;;;;;;;10.39;72.67;100776.97;1702798;83;21165;-40
2021/04/17 11:49:49;;;;;;;6.70;6.03;;;;;;;10.43;72.83;100780.33;1680119;83;21264;-42
2021/04/17 11:52:17;;;;;;;7.60;6.67;;;;;;;10.44;72.81;100785.59;1688622;83;21164;-44
2021/04/17 11:54:45;;;;;;;7.40;6.70;;;;;;;10.47;72.92;100786.75;1708332;82;21149;-38
2021/04/17 11:57:13;;;;;;;9.20;7.62;;;;;;;10.50;72.96;100781.73;1711359;82;21616;-40
2021/04/17 11:59:40;;;;;;;8.15;6.37;;;;;;;10.52;72.74;100782.52;1704179;82;21333;-41